Time;durP1;ratioP1;P1;durP2;ratioP2;P2;SDS_P1;SDS_P2;PMS_P1;PMS_P2;Temp;Humidity;BMP_temperature;BMP_pressure;BME280_temperature;BME280_humidity;BME280_pressure;Samples;Min_cycle;Max_cycle;Signal;HPM_P1;HPM_P2
2021/03/05 00:00:19;;;;;;;7.60;3.30;;;;;;;;;;5014723;28;20181;-86
2021/03/05 00:02:45;;;;;;;8.00;3.30;;;;;;;;;;5042012;28;20189;-86
2021/03/05 00:05:11;;;;;;;6.80;3.37;;;;;;;;;;5041667;28;20181;-86
2021/03/05 00:07:38;;;;;;;9.23;3.47;;;;;;;;;;5074214;28;20168;-86
2021/03/05 00:10:08;;;;;;;7.90;3.40;;;;;;;;;;5045467;28;20676;-86
2021/03/05 00:12:34;;;;;;;10.23;3.43;;;;;;;;;;5048522;28;20523;-86
2021/03/05 00:15:00;;;;;;;5.43;2.80;;;;;;;;;;5051894;28;20247;-86
2021/03/05 00:17:27;;;;;;;5.93;3.03;;;;;;;;;;5066203;28;20224;-86
2021/03/05 00:19:53;;;;;;;6.63;3.37;;;;;;;;;;5044795;28;20230;-86
2021/03/05 00:22:19;;;;;;;7.00;3.43;;;;;;;;;;5054538;28;20181;-86
2021/03/05 00:24:45;;;;;;;8.60;4.00;;;;;;;;;;5045780;28;20235;-86
2021/03/05 00:30:14;;;;;;;6.97;3.53;;;;;;;;;;5037449;28;20241;-86
2021/03/05 00:32:41;;;;;;;9.60;3.93;;;;;;;;;;5056129;28;20200;-86
2021/03/05 00:35:08;;;;;;;11.97;3.60;;;;;;;;;;5054058;28;20184;-86
2021/03/05 00:37:35;;;;;;;11.90;3.90;;;;;;;;;;5041888;28;20201;-86
2021/03/05 00:40:01;;;;;;;7.13;3.43;;;;;;;;;;5052527;28;20653;-86
2021/03/05 00:42:27;;;;;;;6.60;3.80;;;;;;;;;;5049539;28;20501;-86
2021/03/05 00:44:53;;;;;;;11.27;3.13;;;;;;;;;;5042721;28;20244;-87
2021/03/05 00:47:19;;;;;;;12.13;4.07;;;;;;;;;;5052867;28;20181;-87
2021/03/05 00:49:45;;;;;;;9.87;4.13;;;;;;;;;;5045347;28;20220;-86
2021/03/05 00:52:12;;;;;;;9.97;3.43;;;;;;;;;;5046980;28;20178;-86
2021/03/05 00:54:38;;;;;;;9.07;3.90;;;;;;;;;;5061540;28;20181;-87
2021/03/05 00:57:04;;;;;;;10.13;4.63;;;;;;;;;;5053598;28;20185;-86
2021/03/05 00:59:30;;;;;;;11.77;4.47;;;;;;;;;;5052524;28;20216;-87
2021/03/05 01:01:56;;;;;;;12.03;4.03;;;;;;;;;;5047082;28;20247;-86
2021/03/05 01:04:22;;;;;;;13.80;4.20;;;;;;;;;;5055005;28;20589;-87
2021/03/05 01:06:48;;;;;;;9.87;4.63;;;;;;;;;;5047323;28;20548;-86
2021/03/05 01:09:14;;;;;;;9.63;4.30;;;;;;;;;;5053106;28;20181;-87
2021/03/05 01:11:40;;;;;;;11.13;5.63;;;;;;;;;;5044037;28;20191;-86
2021/03/05 01:14:06;;;;;;;10.60;4.57;;;;;;;;;;5054049;28;20185;-86
2021/03/05 01:16:32;;;;;;;10.27;5.13;;;;;;;;;;5041631;28;20277;-87
2021/03/05 01:19:01;;;;;;;10.20;4.67;;;;;;;;;;5050982;28;20566;-87
2021/03/05 01:21:27;;;;;;;8.10;4.27;;;;;;;;;;5059194;28;20192;-87
2021/03/05 01:23:53;;;;;;;11.50;5.00;;;;;;;;;;5046697;28;20181;-87
2021/03/05 01:26:19;;;;;;;10.87;4.70;;;;;;;;;;5054519;28;20617;-87
2021/03/05 01:28:46;;;;;;;6.73;4.10;;;;;;;;;;5058321;28;20320;-86
2021/03/05 01:31:13;;;;;;;10.13;4.97;;;;;;;;;;5046025;28;20284;-87
2021/03/05 01:33:39;;;;;;;7.10;4.27;;;;;;;;;;5041714;28;20787;-86
2021/03/05 01:36:06;;;;;;;9.43;4.40;;;;;;;;;;5052150;28;20213;-86
2021/03/05 01:38:32;;;;;;;9.43;5.47;;;;;;;;;;5054107;28;20220;-86
2021/03/05 01:40:58;;;;;;;9.67;5.13;;;;;;;;;;5056202;28;20530;-87
2021/03/05 01:43:26;;;;;;;8.27;5.30;;;;;;;;;;5051891;28;20181;-86
2021/03/05 01:45:52;;;;;;;8.70;4.73;;;;;;;;;;5041585;28;20182;-86
2021/03/05 01:48:19;;;;;;;9.37;5.23;;;;;;;;;;5055163;28;20228;-86
2021/03/05 01:50:52;;;;;;;11.57;5.77;;;;;;;;;;5042697;28;20176;-86
2021/03/05 01:53:19;;;;;;;9.53;5.07;;;;;;;;;;5068579;28;20177;-86
2021/03/05 01:55:45;;;;;;;11.70;5.60;;;;;;;;;;5049376;28;20187;-86
2021/03/05 01:58:11;;;;;;;10.77;5.50;;;;;;;;;;5039695;28;20466;-87
2021/03/05 02:00:48;;;;;;;9.93;5.30;;;;;;;;;;5054955;28;20540;-87
2021/03/05 02:03:14;;;;;;;11.33;5.30;;;;;;;;;;5040735;28;20648;-86
2021/03/05 02:05:41;;;;;;;9.33;4.87;;;;;;;;;;5054592;28;20192;-86
2021/03/05 02:08:07;;;;;;;9.30;6.10;;;;;;;;;;5052886;28;20176;-86
2021/03/05 02:10:34;;;;;;;8.30;5.73;;;;;;;;;;5047627;28;20644;-86
2021/03/05 02:13:00;;;;;;;9.77;5.70;;;;;;;;;;5040564;28;20212;-86
2021/03/05 02:15:26;;;;;;;10.80;6.37;;;;;;;;;;5047412;28;20181;-86
2021/03/05 02:18:01;;;;;;;10.57;5.40;;;;;;;;;;5053862;28;20325;-86
2021/03/05 02:20:31;;;;;;;9.30;5.97;;;;;;;;;;5054165;28;20427;-87
2021/03/05 02:23:15;;;;;;;8.57;6.30;;;;;;;;;;5053640;28;20173;-86
2021/03/05 02:26:00;;;;;;;8.33;5.97;;;;;;;;;;5045274;28;20176;-86
2021/03/05 02:28:45;;;;;;;10.27;5.90;;;;;;;;;;5065828;28;20427;-86
2021/03/05 02:31:23;;;;;;;9.03;6.20;;;;;;;;;;5044319;28;20196;-86
2021/03/05 02:34:08;;;;;;;8.23;6.30;;;;;;;;;;5035721;28;20583;-86
2021/03/05 02:36:37;;;;;;;11.23;6.07;;;;;;;;;;5042013;28;20241;-86
2021/03/05 02:39:10;;;;;;;8.63;6.13;;;;;;;;;;5035271;28;20201;-86
2021/03/05 02:41:37;;;;;;;8.43;5.80;;;;;;;;;;5060974;28;20584;-86
2021/03/05 02:44:05;;;;;;;10.73;6.43;;;;;;;;;;5065082;28;20219;-86
2021/03/05 02:46:31;;;;;;;9.03;6.00;;;;;;;;;;5054714;28;20531;-86
2021/03/05 02:48:58;;;;;;;8.10;5.77;;;;;;;;;;5053885;28;20215;-86
2021/03/05 02:51:26;;;;;;;7.60;5.70;;;;;;;;;;5068974;28;20542;-86
2021/03/05 02:53:52;;;;;;;9.23;6.33;;;;;;;;;;5054887;28;20188;-86
2021/03/05 02:56:20;;;;;;;8.00;6.40;;;;;;;;;;5054280;28;20187;-86
2021/03/05 02:58:47;;;;;;;9.80;6.20;;;;;;;;;;5065158;28;20532;-86
2021/03/05 03:01:14;;;;;;;11.77;6.57;;;;;;;;;;5042995;28;20541;-86
2021/03/05 03:03:41;;;;;;;7.77;5.80;;;;;;;;;;5049193;28;20237;-86
2021/03/05 03:06:11;;;;;;;10.77;6.83;;;;;;;;;;5047576;28;20177;-87
2021/03/05 03:08:38;;;;;;;8.63;6.90;;;;;;;;;;5057345;28;20180;-86
2021/03/05 03:11:05;;;;;;;8.37;6.53;;;;;;;;;;5061976;28;20288;-86
2021/03/05 03:13:35;;;;;;;7.37;6.50;;;;;;;;;;5058252;28;20188;-86
2021/03/05 03:16:02;;;;;;;8.97;7.13;;;;;;;;;;5057567;28;20607;-86
2021/03/05 03:18:29;;;;;;;10.03;7.50;;;;;;;;;;5056834;28;20536;-86
2021/03/05 03:20:56;;;;;;;9.20;7.03;;;;;;;;;;5053282;28;20173;-86
2021/03/05 03:23:22;;;;;;;9.97;7.50;;;;;;;;;;5073501;28;20169;-86
2021/03/05 03:25:49;;;;;;;7.63;6.80;;;;;;;;;;5058008;28;20173;-86
2021/03/05 03:28:15;;;;;;;8.67;6.43;;;;;;;;;;5074367;28;20238;-86
2021/03/05 03:30:41;;;;;;;7.67;6.37;;;;;;;;;;5058027;28;20189;-86
2021/03/05 03:33:07;;;;;;;7.87;6.03;;;;;;;;;;5044936;28;20173;-86
2021/03/05 03:35:34;;;;;;;10.70;7.63;;;;;;;;;;5056901;28;20184;-86
2021/03/05 03:38:00;;;;;;;8.20;6.83;;;;;;;;;;5056785;28;20219;-86
2021/03/05 03:40:26;;;;;;;8.80;7.23;;;;;;;;;;5052011;28;20260;-86
2021/03/05 03:42:52;;;;;;;7.60;6.50;;;;;;;;;;5046358;28;20168;-86
2021/03/05 03:45:20;;;;;;;7.80;6.77;;;;;;;;;;5058740;28;20176;-87
2021/03/05 03:47:47;;;;;;;7.20;6.23;;;;;;;;;;5073656;28;20255;-86
2021/03/05 03:50:14;;;;;;;8.13;6.20;;;;;;;;;;5037698;28;20185;-86
2021/03/05 03:52:46;;;;;;;8.07;6.47;;;;;;;;;;5040948;28;20243;-86
2021/03/05 03:55:13;;;;;;;6.97;6.17;;;;;;;;;;5056106;28;20603;-86
2021/03/05 03:57:40;;;;;;;6.97;5.63;;;;;;;;;;5054315;28;20208;-86
2021/03/05 04:00:07;;;;;;;8.70;6.30;;;;;;;;;;5057573;28;20192;-86
2021/03/05 04:02:33;;;;;;;10.00;6.07;;;;;;;;;;5051371;28;20173;-86
2021/03/05 04:05:03;;;;;;;8.23;6.77;;;;;;;;;;5074767;28;20200;-86
2021/03/05 04:07:31;;;;;;;7.43;6.27;;;;;;;;;;5056015;28;20267;-86
2021/03/05 04:09:58;;;;;;;7.53;6.40;;;;;;;;;;5055304;28;20625;-86
2021/03/05 04:12:26;;;;;;;7.97;6.53;;;;;;;;;;5055504;28;20180;-86
2021/03/05 04:14:53;;;;;;;6.43;5.70;;;;;;;;;;5056099;28;20177;-86
2021/03/05 04:17:19;;;;;;;8.70;5.47;;;;;;;;;;5055995;28;20904;-86
2021/03/05 04:19:46;;;;;;;6.73;5.73;;;;;;;;;;5056871;28;20260;-86
2021/03/05 04:22:12;;;;;;;6.47;5.37;;;;;;;;;;5056846;28;20571;-86
2021/03/05 04:24:38;;;;;;;6.77;5.63;;;;;;;;;;5056402;28;20169;-86
2021/03/05 04:27:08;;;;;;;6.60;5.90;;;;;;;;;;5051027;28;20173;-87
2021/03/05 04:29:34;;;;;;;5.33;4.83;;;;;;;;;;5053815;28;20191;-86
2021/03/05 04:32:00;;;;;;;5.47;4.87;;;;;;;;;;5055398;28;20415;-86
2021/03/05 04:34:26;;;;;;;5.87;5.00;;;;;;;;;;5041928;28;20420;-86
2021/03/05 04:36:52;;;;;;;6.47;4.70;;;;;;;;;;5052657;28;20188;-86
2021/03/05 04:39:18;;;;;;;5.87;4.20;;;;;;;;;;5055673;28;20196;-86
2021/03/05 04:41:44;;;;;;;5.73;4.37;;;;;;;;;;5072797;28;20172;-86
2021/03/05 04:44:10;;;;;;;4.37;3.87;;;;;;;;;;5046478;28;20177;-86
2021/03/05 04:46:36;;;;;;;4.13;3.73;;;;;;;;;;5066327;28;20615;-86
2021/03/05 04:49:02;;;;;;;5.37;4.17;;;;;;;;;;5068976;28;20713;-86
2021/03/05 04:51:28;;;;;;;5.00;3.57;;;;;;;;;;5052373;28;20204;-86
2021/03/05 04:53:54;;;;;;;4.03;3.63;;;;;;;;;;5052980;28;20196;-86
2021/03/05 04:56:20;;;;;;;4.10;3.20;;;;;;;;;;5073545;28;20410;-86
2021/03/05 04:58:46;;;;;;;3.37;2.97;;;;;;;;;;5055785;28;20291;-86
2021/03/05 05:01:12;;;;;;;5.10;3.33;;;;;;;;;;5053020;28;20172;-86
2021/03/05 05:03:38;;;;;;;3.50;2.90;;;;;;;;;;5039595;28;20254;-86
2021/03/05 05:06:04;;;;;;;4.57;2.93;;;;;;;;;;5038692;28;20172;-86
2021/03/05 05:08:30;;;;;;;4.43;3.10;;;;;;;;;;5055235;28;20189;-86
2021/03/05 05:10:56;;;;;;;3.83;3.00;;;;;;;;;;5054271;28;20211;-86
2021/03/05 05:13:22;;;;;;;3.43;2.60;;;;;;;;;;5067685;28;20172;-86
2021/03/05 05:15:49;;;;;;;3.50;2.90;;;;;;;;;;5056207;28;20267;-87
2021/03/05 05:18:15;;;;;;;2.93;2.60;;;;;;;;;;5071451;28;20549;-86
2021/03/05 05:20:41;;;;;;;4.23;2.80;;;;;;;;;;5048158;28;20260;-86
2021/03/05 05:23:07;;;;;;;3.47;2.83;;;;;;;;;;5052348;28;20430;-86
2021/03/05 05:25:33;;;;;;;3.03;2.67;;;;;;;;;;5069426;28;20564;-86
2021/03/05 05:27:59;;;;;;;2.97;2.63;;;;;;;;;;5053342;28;20186;-86
2021/03/05 05:30:25;;;;;;;3.77;2.50;;;;;;;;;;5047302;28;20268;-86
2021/03/05 05:32:51;;;;;;;2.90;2.20;;;;;;;;;;5040797;28;20645;-87
2021/03/05 05:35:17;;;;;;;3.20;2.80;;;;;;;;;;5056022;28;20438;-88
2021/03/05 05:37:43;;;;;;;3.40;2.70;;;;;;;;;;5042810;28;20642;-86
2021/03/05 05:40:10;;;;;;;2.90;2.40;;;;;;;;;;5048475;28;20184;-86
2021/03/05 05:42:36;;;;;;;3.20;2.63;;;;;;;;;;5042050;28;20177;-86
2021/03/05 05:45:03;;;;;;;2.80;2.20;;;;;;;;;;5052808;28;20173;-86
2021/03/05 05:47:30;;;;;;;2.80;2.33;;;;;;;;;;5053805;28;20506;-86
2021/03/05 05:50:01;;;;;;;3.50;2.40;;;;;;;;;;5044695;28;20225;-86
2021/03/05 05:52:27;;;;;;;4.57;2.40;;;;;;;;;;5053267;28;20415;-86
2021/03/05 05:54:54;;;;;;;2.53;2.23;;;;;;;;;;5038518;28;20173;-86
2021/03/05 05:57:20;;;;;;;3.07;2.20;;;;;;;;;;5055605;28;20207;-86
2021/03/05 05:59:47;;;;;;;2.80;2.40;;;;;;;;;;5074184;28;20418;-85
2021/03/05 06:02:13;;;;;;;5.43;2.33;;;;;;;;;;5055652;28;20176;-86
2021/03/05 06:04:39;;;;;;;3.07;2.07;;;;;;;;;;5056242;28;20415;-86
2021/03/05 06:07:05;;;;;;;3.50;2.00;;;;;;;;;;5055296;28;20176;-87
2021/03/05 06:09:32;;;;;;;2.50;2.10;;;;;;;;;;5054359;28;20204;-85
2021/03/05 06:11:58;;;;;;;4.07;2.07;;;;;;;;;;5066468;28;20427;-86
2021/03/05 06:14:25;;;;;;;3.53;2.80;;;;;;;;;;5041515;28;20428;-86
2021/03/05 06:16:58;;;;;;;3.70;2.53;;;;;;;;;;5057957;28;20424;-86
2021/03/05 06:19:28;;;;;;;2.50;2.20;;;;;;;;;;5052479;28;20917;-86
2021/03/05 06:21:54;;;;;;;2.77;2.40;;;;;;;;;;5053044;28;20442;-86
2021/03/05 06:24:22;;;;;;;2.53;2.13;;;;;;;;;;5063888;28;20263;-86
2021/03/05 06:26:52;;;;;;;2.17;1.97;;;;;;;;;;5050133;28;20429;-86
2021/03/05 06:29:22;;;;;;;3.10;2.10;;;;;;;;;;5048208;28;20446;-85
2021/03/05 06:31:55;;;;;;;3.10;1.93;;;;;;;;;;5053916;28;20734;-82
2021/03/05 06:34:22;;;;;;;3.73;2.40;;;;;;;;;;5043954;28;20426;-86
2021/03/05 06:37:17;;;;;;;2.67;2.20;;;;;;;;;;5045928;28;20419;-86
2021/03/05 06:39:43;;;;;;;2.87;1.80;;;;;;;;;;5027637;28;20494;-86
2021/03/05 06:42:13;;;;;;;1.90;1.70;;;;;;;;;;5056494;28;20442;-86
2021/03/05 06:44:40;;;;;;;3.17;2.50;;;;;;;;;;5052928;28;20426;-86
2021/03/05 06:47:10;;;;;;;3.77;2.80;;;;;;;;;;5054195;28;20450;-86
2021/03/05 06:49:36;;;;;;;2.40;2.20;;;;;;;;;;5057188;28;20481;-86
2021/03/05 06:52:03;;;;;;;2.10;1.80;;;;;;;;;;5018979;28;20965;-87
2021/03/05 06:54:30;;;;;;;2.23;1.67;;;;;;;;;;5033204;28;20820;-86
2021/03/05 06:56:56;;;;;;;3.63;2.00;;;;;;;;;;5033788;28;20651;-86
2021/03/05 06:59:23;;;;;;;2.23;1.97;;;;;;;;;;5034170;28;20459;-86
2021/03/05 07:01:54;;;;;;;4.03;1.80;;;;;;;;;;5033382;28;20478;-87
2021/03/05 07:04:23;;;;;;;2.20;1.97;;;;;;;;;;5034225;28;20424;-86
2021/03/05 07:06:56;;;;;;;2.07;1.80;;;;;;;;;;5028256;28;20451;-86
2021/03/05 07:09:27;;;;;;;2.87;2.03;;;;;;;;;;5045475;28;20703;-86
2021/03/05 07:11:55;;;;;;;3.40;1.60;;;;;;;;;;5034542;28;20424;-86
2021/03/05 07:14:25;;;;;;;3.17;1.70;;;;;;;;;;5029345;28;20975;-86
2021/03/05 07:16:52;;;;;;;2.07;1.80;;;;;;;;;;5028246;28;20426;-86
2021/03/05 07:19:21;;;;;;;3.37;1.90;;;;;;;;;;5029918;28;20469;-86
2021/03/05 07:21:48;;;;;;;3.13;2.07;;;;;;;;;;5017945;28;20419;-86
2021/03/05 07:24:15;;;;;;;3.50;1.90;;;;;;;;;;5047348;28;20452;-86
2021/03/05 07:26:59;;;;;;;2.63;2.10;;;;;;;;;;5018494;28;21025;-86
2021/03/05 07:29:37;;;;;;;2.37;1.80;;;;;;;;;;5022930;28;20499;-86
2021/03/05 07:32:07;;;;;;;4.60;2.07;;;;;;;;;;5034159;28;20829;-86
2021/03/05 07:34:56;;;;;;;4.03;2.10;;;;;;;;;;5025788;28;20554;-85
2021/03/05 07:37:24;;;;;;;2.47;1.97;;;;;;;;;;5025701;28;20508;-86
2021/03/05 07:39:50;;;;;;;2.10;1.70;;;;;;;;;;5016416;28;20606;-85
2021/03/05 07:42:18;;;;;;;2.73;1.80;;;;;;;;;;5025000;28;20426;-86
2021/03/05 07:44:44;;;;;;;2.97;2.40;;;;;;;;;;5074574;28;20407;-85
2021/03/05 07:47:13;;;;;;;1.83;1.53;;;;;;;;;;5034767;28;20423;-86
2021/03/05 07:49:40;;;;;;;3.90;2.00;;;;;;;;;;5053138;28;20580;-82
2021/03/05 07:52:07;;;;;;;4.03;1.83;;;;;;;;;;5052922;28;20440;-86
2021/03/05 07:54:39;;;;;;;2.07;1.60;;;;;;;;;;5055010;28;20430;-84
2021/03/05 07:57:06;;;;;;;4.47;1.80;;;;;;;;;;5054589;28;21382;-85
2021/03/05 07:59:38;;;;;;;1.60;1.50;;;;;;;;;;5070695;28;20458;-86
2021/03/05 08:02:05;;;;;;;3.67;1.90;;;;;;;;;;5072752;28;20426;-85
2021/03/05 08:05:06;;;;;;;2.07;1.57;;;;;;;;;;5048864;28;20426;-88
2021/03/05 08:07:34;;;;;;;2.73;1.43;;;;;;;;;;5007994;28;20410;-86
2021/03/05 08:10:00;;;;;;;2.33;1.77;;;;;;;;;;5071895;28;20925;-86
2021/03/05 08:12:28;;;;;;;2.23;1.67;;;;;;;;;;5058855;28;20773;-86
2021/03/05 08:15:10;;;;;;;2.13;1.60;;;;;;;;;;5059047;28;20497;-85
2021/03/05 08:17:40;;;;;;;4.83;2.17;;;;;;;;;;5047373;28;20439;-86
2021/03/05 08:20:06;;;;;;;1.50;1.30;;;;;;;;;;5049362;28;20404;-85
2021/03/05 08:22:33;;;;;;;2.53;1.33;;;;;;;;;;5073843;28;20429;-85
2021/03/05 08:25:17;;;;;;;1.97;1.53;;;;;;;;;;5041201;28;20449;-86
2021/03/05 08:27:43;;;;;;;3.70;1.93;;;;;;;;;;5055123;28;20415;-85
2021/03/05 08:30:12;;;;;;;3.07;1.90;;;;;;;;;;5038789;28;20502;-85
2021/03/05 08:32:44;;;;;;;3.73;2.60;;;;;;;;;;5056737;28;20493;-85
2021/03/05 08:35:15;;;;;;;2.23;1.60;;;;;;;;;;5052749;28;20407;-86
2021/03/05 08:37:42;;;;;;;3.57;1.77;;;;;;;;;;5056793;28;21006;-83
2021/03/05 08:40:11;;;;;;;2.63;1.67;;;;;;;;;;5051041;28;20407;-86
2021/03/05 08:42:40;;;;;;;2.60;1.57;;;;;;;;;;5058130;28;20414;-85
2021/03/05 08:45:06;;;;;;;4.93;1.60;;;;;;;;;;5046156;28;20420;-86
2021/03/05 08:47:33;;;;;;;3.33;1.50;;;;;;;;;;5038896;28;20437;-86
2021/03/05 08:49:59;;;;;;;2.33;1.80;;;;;;;;;;5057789;28;20446;-86
2021/03/05 08:52:26;;;;;;;2.90;1.93;;;;;;;;;;5056717;28;20869;-86
2021/03/05 08:54:52;;;;;;;2.50;1.90;;;;;;;;;;5041523;28;20234;-86
2021/03/05 08:57:18;;;;;;;3.60;1.63;;;;;;;;;;5053773;28;20833;-86
2021/03/05 08:59:48;;;;;;;1.97;1.27;;;;;;;;;;5058095;28;20521;-86
2021/03/05 09:02:14;;;;;;;3.63;1.53;;;;;;;;;;5054337;28;20415;-86
2021/03/05 09:04:43;;;;;;;2.27;1.60;;;;;;;;;;5038962;28;20419;-86
2021/03/05 09:07:13;;;;;;;3.13;1.40;;;;;;;;;;5038141;28;20507;-86
2021/03/05 09:09:40;;;;;;;2.20;1.73;;;;;;;;;;5040010;28;20497;-86
2021/03/05 09:12:07;;;;;;;2.67;1.63;;;;;;;;;;5074918;28;20427;-86
2021/03/05 09:14:33;;;;;;;3.40;1.40;;;;;;;;;;5038116;28;20415;-86
2021/03/05 09:17:03;;;;;;;1.47;1.37;;;;;;;;;;5037508;28;20185;-86
2021/03/05 09:19:37;;;;;;;2.93;1.87;;;;;;;;;;5049975;28;20203;-86
2021/03/05 09:22:23;;;;;;;4.50;1.67;;;;;;;;;;5045247;28;20416;-86
2021/03/05 09:24:53;;;;;;;3.10;1.50;;;;;;;;;;5058305;28;20421;-86
2021/03/05 09:27:29;;;;;;;2.33;1.20;;;;;;;;;;5043841;28;20557;-86
2021/03/05 09:29:56;;;;;;;2.00;1.50;;;;;;;;;;5037873;28;20437;-86
2021/03/05 09:32:23;;;;;;;1.97;1.53;;;;;;;;;;5037987;28;20179;-86
2021/03/05 09:34:52;;;;;;;2.93;1.53;;;;;;;;;;5056346;28;20419;-86
2021/03/05 09:37:20;;;;;;;3.93;1.60;;;;;;;;;;5057494;28;20754;-86
2021/03/05 09:39:47;;;;;;;2.20;1.47;;;;;;;;;;5058195;28;20546;-86
2021/03/05 09:42:13;;;;;;;1.83;1.63;;;;;;;;;;5049976;28;20184;-86
2021/03/05 09:44:46;;;;;;;3.20;2.27;;;;;;;;;;5037501;28;20184;-86
2021/03/05 09:47:12;;;;;;;3.27;1.67;;;;;;;;;;5055043;28;20399;-86
2021/03/05 09:49:38;;;;;;;1.90;1.60;;;;;;;;;;5037246;28;20316;-86
2021/03/05 09:52:05;;;;;;;2.27;1.53;;;;;;;;;;5055034;28;20442;-86
2021/03/05 09:54:38;;;;;;;3.90;1.50;;;;;;;;;;5034700;28;20227;-86
2021/03/05 09:57:04;;;;;;;4.03;1.83;;;;;;;;;;5016650;28;20264;-86
2021/03/05 09:59:45;;;;;;;2.70;1.27;;;;;;;;;;5032722;28;20200;-86
2021/03/05 10:02:11;;;;;;;1.97;1.70;;;;;;;;;;5036672;28;20181;-86
2021/03/05 10:04:44;;;;;;;1.77;1.50;;;;;;;;;;5036488;28;20176;-86
2021/03/05 10:07:10;;;;;;;2.90;1.37;;;;;;;;;;5017567;28;20277;-86
2021/03/05 10:09:36;;;;;;;2.67;1.47;;;;;;;;;;5032285;28;20193;-86
2021/03/05 10:12:02;;;;;;;3.97;1.40;;;;;;;;;;5036937;28;20180;-86
2021/03/05 10:14:32;;;;;;;1.30;1.17;;;;;;;;;;5036468;28;20177;-86
2021/03/05 10:17:09;;;;;;;2.37;1.30;;;;;;;;;;5036638;28;20192;-86
2021/03/05 10:19:37;;;;;;;2.10;1.40;;;;;;;;;;5035938;28;20203;-86
2021/03/05 10:22:03;;;;;;;1.77;1.17;;;;;;;;;;5037144;28;20628;-86
2021/03/05 10:24:29;;;;;;;5.10;1.60;;;;;;;;;;5037670;28;20260;-86
2021/03/05 10:27:11;;;;;;;3.03;1.10;;;;;;;;;;5038681;28;20177;-86
2021/03/05 10:29:57;;;;;;;2.70;1.03;;;;;;;;;;5036618;28;20169;-86
2021/03/05 10:32:25;;;;;;;4.67;1.67;;;;;;;;;;5037402;28;20184;-86
2021/03/05 10:34:52;;;;;;;2.33;1.40;;;;;;;;;;5036769;28;20191;-86
2021/03/05 10:37:19;;;;;;;2.77;1.20;;;;;;;;;;5036862;28;20169;-86
2021/03/05 10:39:45;;;;;;;2.60;1.30;;;;;;;;;;5037863;28;20664;-86
2021/03/05 10:42:13;;;;;;;2.27;1.57;;;;;;;;;;5038996;28;20177;-86
2021/03/05 10:44:40;;;;;;;4.07;1.30;;;;;;;;;;5039749;28;20226;-86
2021/03/05 10:47:07;;;;;;;2.83;1.50;;;;;;;;;;5047087;28;20181;-86
2021/03/05 10:49:33;;;;;;;3.47;1.10;;;;;;;;;;5040204;28;20224;-86
2021/03/05 10:51:59;;;;;;;1.00;1.00;;;;;;;;;;5051705;28;20187;-86
2021/03/05 10:54:26;;;;;;;3.13;1.23;;;;;;;;;;5034726;28;20185;-85
2021/03/05 10:56:52;;;;;;;3.17;0.90;;;;;;;;;;5033659;28;20258;-85
2021/03/05 10:59:19;;;;;;;2.63;1.10;;;;;;;;;;5046208;28;20200;-86
2021/03/05 11:01:46;;;;;;;3.80;1.40;;;;;;;;;;5049790;28;20181;-86
2021/03/05 11:04:12;;;;;;;2.23;1.20;;;;;;;;;;5050836;28;20714;-87
2021/03/05 11:06:38;;;;;;;1.37;1.00;;;;;;;;;;5044834;28;20196;-88
2021/03/05 11:09:06;;;;;;;1.47;1.30;;;;;;;;;;5032949;28;20506;-88
2021/03/05 11:11:32;;;;;;;2.57;0.80;;;;;;;;;;5032955;28;20593;-86
2021/03/05 11:13:58;;;;;;;1.80;1.27;;;;;;;;;;5044534;28;20185;-86
2021/03/05 11:16:25;;;;;;;1.17;1.07;;;;;;;;;;5047938;28;20169;-86
2021/03/05 11:18:51;;;;;;;1.77;1.00;;;;;;;;;;5052392;28;20231;-87
2021/03/05 11:21:17;;;;;;;0.67;0.67;;;;;;;;;;5046231;28;20174;-86
2021/03/05 11:23:44;;;;;;;4.33;1.10;;;;;;;;;;5052232;28;20181;-86
2021/03/05 11:26:10;;;;;;;2.70;0.70;;;;;;;;;;5051168;28;20213;-85
2021/03/05 11:28:36;;;;;;;1.87;1.03;;;;;;;;;;5043093;28;20178;-85
2021/03/05 11:31:02;;;;;;;3.50;1.37;;;;;;;;;;5036062;28;20268;-85
2021/03/05 11:33:29;;;;;;;0.80;0.70;;;;;;;;;;5040295;28;20655;-85
2021/03/05 11:35:55;;;;;;;2.70;1.00;;;;;;;;;;5058908;28;20208;-85
2021/03/05 11:38:21;;;;;;;0.97;0.73;;;;;;;;;;5057981;28;20201;-86
2021/03/05 11:40:47;;;;;;;4.30;1.00;;;;;;;;;;5049044;28;20178;-86
2021/03/05 11:43:13;;;;;;;2.03;0.90;;;;;;;;;;5026159;28;20177;-84
2021/03/05 11:45:39;;;;;;;0.87;0.80;;;;;;;;;;5046427;28;20174;-86
2021/03/05 11:48:06;;;;;;;1.77;1.10;;;;;;;;;;5051153;28;20694;-86
2021/03/05 11:50:32;;;;;;;2.00;0.70;;;;;;;;;;5041904;28;20177;-89
2021/03/05 11:52:58;;;;;;;2.70;0.90;;;;;;;;;;5042118;28;20181;-86
2021/03/05 11:55:24;;;;;;;1.83;0.80;;;;;;;;;;5041309;28;20251;-87
2021/03/05 11:57:50;;;;;;;2.70;0.80;;;;;;;;;;5040558;28;20189;-86
2021/03/05 12:00:16;;;;;;;4.40;0.80;;;;;;;;;;5041238;28;20165;-90
2021/03/05 12:02:42;;;;;;;9.67;0.83;;;;;;;;;;5042232;28;20181;-86
2021/03/05 12:05:09;;;;;;;1.80;0.93;;;;;;;;;;5041163;28;20169;-85
2021/03/05 12:07:35;;;;;;;1.30;0.90;;;;;;;;;;5041517;28;20177;-85
2021/03/05 12:10:01;;;;;;;2.17;0.93;;;;;;;;;;5042212;28;20197;-86
2021/03/05 12:12:31;;;;;;;1.63;0.70;;;;;;;;;;5039837;28;20186;-84
2021/03/05 12:14:57;;;;;;;3.67;1.10;;;;;;;;;;5043369;28;20200;-88
2021/03/05 12:17:23;;;;;;;5.30;1.07;;;;;;;;;;5040281;28;20188;-83
2021/03/05 12:19:49;;;;;;;2.63;0.90;;;;;;;;;;5039359;28;20648;-83
2021/03/05 12:22:16;;;;;;;1.20;0.80;;;;;;;;;;5039257;28;20173;-81
2021/03/05 12:24:42;;;;;;;0.93;0.70;;;;;;;;;;5040168;28;20173;-80
2021/03/05 12:27:08;;;;;;;0.90;0.77;;;;;;;;;;5038748;28;20245;-82
2021/03/05 12:29:34;;;;;;;7.13;1.93;;;;;;;;;;5057250;28;20177;-83
2021/03/05 12:32:00;;;;;;;1.10;0.90;;;;;;;;;;5056615;28;20207;-83
2021/03/05 12:34:26;;;;;;;1.60;1.07;;;;;;;;;;5038918;28;20173;-83
2021/03/05 12:36:52;;;;;;;1.50;1.03;;;;;;;;;;5055960;28;20177;-83
2021/03/05 12:39:18;;;;;;;1.47;0.93;;;;;;;;;;5037617;28;20196;-82
2021/03/05 12:41:44;;;;;;;2.90;1.20;;;;;;;;;;5036606;28;20192;-82
2021/03/05 12:44:10;;;;;;;1.37;1.10;;;;;;;;;;5055432;28;20177;-82
2021/03/05 12:46:36;;;;;;;1.67;1.30;;;;;;;;;;5038941;28;20169;-84
2021/03/05 12:49:03;;;;;;;3.00;1.30;;;;;;;;;;5046913;28;20221;-84
2021/03/05 12:51:29;;;;;;;1.10;0.87;;;;;;;;;;5051452;28;20323;-82
2021/03/05 12:53:55;;;;;;;1.43;1.17;;;;;;;;;;5060650;28;20235;-82
2021/03/05 12:56:21;;;;;;;1.43;0.80;;;;;;;;;;5056309;28;20245;-83
2021/03/05 12:58:47;;;;;;;0.90;0.90;;;;;;;;;;5038255;28;20239;-83
2021/03/05 13:01:13;;;;;;;0.77;0.73;;;;;;;;;;5039015;28;20188;-82
2021/03/05 13:03:39;;;;;;;1.37;1.00;;;;;;;;;;5038851;28;20181;-81
2021/03/05 13:06:05;;;;;;;0.87;0.87;;;;;;;;;;5057029;28;20238;-84
2021/03/05 13:08:31;;;;;;;1.83;1.10;;;;;;;;;;5039510;28;20212;-86
2021/03/05 13:10:57;;;;;;;1.73;1.03;;;;;;;;;;5043388;28;20688;-85
2021/03/05 13:13:24;;;;;;;2.17;0.93;;;;;;;;;;5074315;28;20306;-85
2021/03/05 13:15:50;;;;;;;1.00;0.90;;;;;;;;;;5058062;28;20755;-85
2021/03/05 13:18:16;;;;;;;4.03;0.87;;;;;;;;;;5067932;28;20204;-86
2021/03/05 13:20:43;;;;;;;1.67;1.03;;;;;;;;;;5047233;28;20196;-86
2021/03/05 13:23:09;;;;;;;2.80;1.10;;;;;;;;;;5037757;28;20177;-84
2021/03/05 13:25:35;;;;;;;2.20;1.10;;;;;;;;;;5067822;28;20184;-85
2021/03/05 13:28:02;;;;;;;1.00;0.87;;;;;;;;;;5053991;28;20193;-85
2021/03/05 13:30:28;;;;;;;1.70;1.00;;;;;;;;;;5054878;28;20177;-85
2021/03/05 13:33:01;;;;;;;1.67;1.07;;;;;;;;;;5057204;28;20692;-84
2021/03/05 13:35:28;;;;;;;4.13;1.00;;;;;;;;;;5055552;28;20256;-85
2021/03/05 13:37:54;;;;;;;1.10;1.00;;;;;;;;;;5059518;28;20239;-85
2021/03/05 13:40:21;;;;;;;2.27;1.00;;;;;;;;;;5052242;28;20171;-84
2021/03/05 13:42:47;;;;;;;1.10;1.00;;;;;;;;;;5056668;28;20168;-84
2021/03/05 13:45:13;;;;;;;1.80;1.03;;;;;;;;;;5054103;28;20207;-84
2021/03/05 13:47:39;;;;;;;2.53;1.00;;;;;;;;;;5042492;28;20169;-84
2021/03/05 13:50:06;;;;;;;1.73;1.00;;;;;;;;;;5054516;28;20177;-85
2021/03/05 13:52:32;;;;;;;1.10;0.93;;;;;;;;;;5066476;28;20236;-85
2021/03/05 13:55:01;;;;;;;0.80;0.80;;;;;;;;;;5038955;28;20185;-85
2021/03/05 13:57:27;;;;;;;1.60;1.00;;;;;;;;;;5035246;28;20239;-83
2021/03/05 13:59:53;;;;;;;1.50;1.03;;;;;;;;;;5043397;28;20231;-83
2021/03/05 14:02:22;;;;;;;2.33;1.13;;;;;;;;;;5051775;28;20170;-85
2021/03/05 14:04:48;;;;;;;0.93;0.93;;;;;;;;;;5035020;28;20178;-85
2021/03/05 14:07:14;;;;;;;1.10;1.00;;;;;;;;;;5053763;28;20222;-84
2021/03/05 14:09:40;;;;;;;1.07;0.80;;;;;;;;;;5054838;28;20956;-85
2021/03/05 14:12:07;;;;;;;1.83;0.90;;;;;;;;;;5066470;28;20183;-85
2021/03/05 14:14:33;;;;;;;1.70;0.70;;;;;;;;;;5052941;28;20176;-82
2021/03/05 14:16:59;;;;;;;0.90;0.70;;;;;;;;;;5039371;28;20181;-83
2021/03/05 14:19:25;;;;;;;0.80;0.80;;;;;;;;;;5043012;28;20208;-83
2021/03/05 14:21:51;;;;;;;2.33;1.10;;;;;;;;;;5050405;28;20238;-83
2021/03/05 14:24:17;;;;;;;2.33;1.20;;;;;;;;;;5054525;28;20176;-83
2021/03/05 14:26:46;;;;;;;4.40;0.90;;;;;;;;;;5066148;28;20177;-85
2021/03/05 14:29:13;;;;;;;4.00;1.37;;;;;;;;;;5043906;28;20207;-85
2021/03/05 14:31:40;;;;;;;4.77;1.40;;;;;;;;;;5047217;28;20239;-86
2021/03/05 14:34:06;;;;;;;1.70;0.90;;;;;;;;;;5037833;28;20273;-88
2021/03/05 14:36:32;;;;;;;2.90;1.30;;;;;;;;;;5052797;28;20555;-83
2021/03/05 14:38:58;;;;;;;5.47;1.30;;;;;;;;;;5054003;28;20197;-83
2021/03/05 14:41:24;;;;;;;0.93;0.90;;;;;;;;;;5051698;28;20184;-83
2021/03/05 14:43:50;;;;;;;1.00;0.77;;;;;;;;;;5068263;28;20204;-83
2021/03/05 14:46:16;;;;;;;2.60;1.07;;;;;;;;;;5037527;28;20196;-83
2021/03/05 14:48:42;;;;;;;0.80;0.80;;;;;;;;;;5072165;28;20277;-83